Careywood, ID

12:59 AM PST on February 14, 2016 (GMT -0800)
Cocolalla, ID KG7CSG | | Change Station
CLOSE
Current Station
Personal Weather Station
Location: Cocolalla, ID
Elevation: 2400 ft
Nearby Weather Stations

Elev 2400 ft 48.10 °N, 116.61 °W | Updated 14 minutes ago

Overcast
Overcast
32.5 °F
Feels Like 32 °F
N
2.7
Wind Variable Wind from ENE

Today
High -- | Low -- °F
--% Chance of Precip.
Yesterday
High -- | Low -- °F
Precip. -- in
Pressure 30.04 in
Visibility 7.0 miles
Clouds Overcast 1400 ft
Windchill 32 °F
Dew Point 31 °F
Humidity 93%
Rainfall 0.03 in
Snow Depth Not available.
6:55 AM 5:06 PM
Waxing Crescent, 39% visible
METAR KSZT 140855Z AUTO 18006KT 7SM -DZ OVC014 00/00 A3004 RMK AO2
Pressure 30.04 in
Visibility 7.0 miles
Clouds Overcast 1400 ft
Windchill 32 °F
Dew Point 31 °F
Humidity 93%
Rainfall 0.03 in
Snow Depth Not available.
6:55 AM 5:06 PM
Waxing Crescent, 39% visible
METAR KSZT 140855Z AUTO 18006KT 7SM -DZ OVC014 00/00 A3004 RMK AO2

10-Day Weather Forecast

Almanac

Astronomy

Feb. 14, 2016 Rise Set
Actual Time
Civil Twilight
Nautical Twilight
Astronomical Twilight
Moon
Length of Visible Light
Length of Day
Tomorrow will be .
, % of the Moon is Illuminated

Today's Extremes

State Highs State Lows

Community

WunderPhotos

Upload Photos

1,892,763 photos uploaded!

WunderBlog® & News

Nearby

Air Quality

  Air Quality AQ Index Pollutant
Not available.

Snow Depth

Station Depth Elevation

Earthquake Activity

City Distance Mag. Time & Date
Minimum magnitude displayed is 2.5.

Coastal Water Temperatures

Place Temperature

Stations

Nearby Weather Stations

Station Location Temp. Windchill Dew Point Humidity Wind Precip. Elev Updated Type
                   

Watches & Warnings

There are currently no watches in effect.